Talleyrand, Iowa
Current Conditions -  °F | °C
As of 6:55 AM on Friday 31 Oct 2014 (Local Time) from KAWG Reporting Station
Clear Clear  
Wind Chill: 20°   Ceiling: Unl
Heat Index: 32°   Visibility: 10mi
Dew Point: 19°   Wind: 20mph
Humidity: 60%   Direction: 340°NNW
Pressure: 30.34"   Gusts: 29mph
Location:  41.3169°N, 91.9953°W
Report Text: KAWG 311155Z AUTO 34017G25KT 10SM CLR M00/M07 A3034 RMK AO2
Loading
Personal Weather Stations






























Interactive Weather Map
Tropical Storm Tracking
New forecast layout! Learn more

10-Day Weather Forecast

Advertisements
Track Severe Weather on mobile